sensor_id;sensor_type;location;lat;lon;timestamp;P1;durP1;ratioP1;P2;durP2;ratioP2
22502;SDS011;11418;48.118;9.992;2023-03-05T00:00:37;36.25;;;13.05;;
22502;SDS011;11418;48.118;9.992;2023-03-05T00:04:37;36.90;;;13.25;;
22502;SDS011;11418;48.118;9.992;2023-03-05T00:08:38;40.78;;;13.55;;
22502;SDS011;11418;48.118;9.992;2023-03-05T00:12:38;38.28;;;11.98;;
22502;SDS011;11418;48.118;9.992;2023-03-05T00:16:39;33.70;;;12.65;;
22502;SDS011;11418;48.118;9.992;2023-03-05T00:20:40;32.35;;;13.07;;
22502;SDS011;11418;48.118;9.992;2023-03-05T00:24:40;29.00;;;12.70;;
22502;SDS011;11418;48.118;9.992;2023-03-05T00:28:41;31.15;;;13.23;;
22502;SDS011;11418;48.118;9.992;2023-03-05T00:32:41;33.95;;;12.43;;
22502;SDS011;11418;48.118;9.992;2023-03-05T00:36:43;24.13;;;10.32;;
22502;SDS011;11418;48.118;9.992;2023-03-05T00:40:45;24.88;;;10.80;;
22502;SDS011;11418;48.118;9.992;2023-03-05T00:44:49;35.67;;;13.00;;
22502;SDS011;11418;48.118;9.992;2023-03-05T00:48:49;25.67;;;10.70;;
22502;SDS011;11418;48.118;9.992;2023-03-05T00:52:50;33.90;;;13.57;;
22502;SDS011;11418;48.118;9.992;2023-03-05T00:56:50;35.60;;;12.63;;
22502;SDS011;11418;48.118;9.992;2023-03-05T01:00:51;33.75;;;12.63;;
22502;SDS011;11418;48.118;9.992;2023-03-05T01:04:52;41.17;;;14.32;;
22502;SDS011;11418;48.118;9.992;2023-03-05T01:08:52;34.50;;;12.27;;
22502;SDS011;11418;48.118;9.992;2023-03-05T01:12:53;31.27;;;12.35;;
22502;SDS011;11418;48.118;9.992;2023-03-05T01:16:54;26.33;;;11.93;;
22502;SDS011;11418;48.118;9.992;2023-03-05T01:20:55;34.05;;;11.57;;
22502;SDS011;11418;48.118;9.992;2023-03-05T01:24:55;29.08;;;11.70;;
22502;SDS011;11418;48.118;9.992;2023-03-05T01:28:56;35.42;;;11.88;;
22502;SDS011;11418;48.118;9.992;2023-03-05T01:32:56;32.75;;;12.27;;
22502;SDS011;11418;48.118;9.992;2023-03-05T01:36:57;32.92;;;11.80;;
22502;SDS011;11418;48.118;9.992;2023-03-05T01:40:58;27.88;;;10.98;;
22502;SDS011;11418;48.118;9.992;2023-03-05T01:45:04;32.47;;;10.13;;
22502;SDS011;11418;48.118;9.992;2023-03-05T01:49:24;29.63;;;11.40;;
22502;SDS011;11418;48.118;9.992;2023-03-05T01:53:34;35.45;;;11.88;;
22502;SDS011;11418;48.118;9.992;2023-03-05T01:57:39;32.17;;;11.48;;
22502;SDS011;11418;48.118;9.992;2023-03-05T02:01:45;34.37;;;10.77;;
22502;SDS011;11418;48.118;9.992;2023-03-05T02:05:49;32.35;;;12.68;;
22502;SDS011;11418;48.118;9.992;2023-03-05T02:09:50;28.00;;;11.13;;
22502;SDS011;11418;48.118;9.992;2023-03-05T02:13:50;32.40;;;11.55;;
22502;SDS011;11418;48.118;9.992;2023-03-05T02:17:51;24.30;;;9.95;;
22502;SDS011;11418;48.118;9.992;2023-03-05T02:21:52;27.42;;;11.23;;
22502;SDS011;11418;48.118;9.992;2023-03-05T02:25:52;29.08;;;10.48;;
22502;SDS011;11418;48.118;9.992;2023-03-05T02:29:53;32.42;;;12.57;;
22502;SDS011;11418;48.118;9.992;2023-03-05T02:33:54;33.05;;;10.50;;
22502;SDS011;11418;48.118;9.992;2023-03-05T02:37:57;28.23;;;11.30;;
22502;SDS011;11418;48.118;9.992;2023-03-05T02:41:57;27.13;;;11.20;;
22502;SDS011;11418;48.118;9.992;2023-03-05T02:45:58;26.58;;;11.13;;
22502;SDS011;11418;48.118;9.992;2023-03-05T02:49:59;27.90;;;10.45;;
22502;SDS011;11418;48.118;9.992;2023-03-05T02:53:59;38.22;;;12.15;;
22502;SDS011;11418;48.118;9.992;2023-03-05T02:58:00;38.80;;;13.15;;
22502;SDS011;11418;48.118;9.992;2023-03-05T03:02:01;24.80;;;11.00;;
22502;SDS011;11418;48.118;9.992;2023-03-05T03:06:01;37.03;;;12.48;;
22502;SDS011;11418;48.118;9.992;2023-03-05T03:10:03;37.13;;;13.45;;
22502;SDS011;11418;48.118;9.992;2023-03-05T03:14:05;38.90;;;13.10;;
22502;SDS011;11418;48.118;9.992;2023-03-05T03:18:05;39.20;;;12.95;;
22502;SDS011;11418;48.118;9.992;2023-03-05T03:22:06;38.78;;;13.88;;
22502;SDS011;11418;48.118;9.992;2023-03-05T03:26:08;41.90;;;13.85;;
22502;SDS011;11418;48.118;9.992;2023-03-05T03:30:09;36.72;;;12.68;;
22502;SDS011;11418;48.118;9.992;2023-03-05T03:34:11;39.50;;;12.20;;
22502;SDS011;11418;48.118;9.992;2023-03-05T03:38:14;35.30;;;13.32;;
22502;SDS011;11418;48.118;9.992;2023-03-05T03:42:18;31.05;;;11.80;;
22502;SDS011;11418;48.118;9.992;2023-03-05T03:46:19;35.00;;;14.35;;
22502;SDS011;11418;48.118;9.992;2023-03-05T03:50:20;34.65;;;12.75;;
22502;SDS011;11418;48.118;9.992;2023-03-05T03:54:23;29.08;;;12.13;;
22502;SDS011;11418;48.118;9.992;2023-03-05T03:58:24;27.67;;;11.43;;
22502;SDS011;11418;48.118;9.992;2023-03-05T04:02:25;33.08;;;13.45;;
22502;SDS011;11418;48.118;9.992;2023-03-05T04:06:26;32.17;;;13.05;;
22502;SDS011;11418;48.118;9.992;2023-03-05T04:10:26;33.70;;;11.98;;
22502;SDS011;11418;48.118;9.992;2023-03-05T04:14:27;36.88;;;13.68;;
22502;SDS011;11418;48.118;9.992;2023-03-05T04:18:27;38.25;;;13.07;;
22502;SDS011;11418;48.118;9.992;2023-03-05T04:22:28;41.10;;;13.57;;
22502;SDS011;11418;48.118;9.992;2023-03-05T04:26:28;29.73;;;11.15;;
22502;SDS011;11418;48.118;9.992;2023-03-05T04:30:29;31.38;;;12.05;;
22502;SDS011;11418;48.118;9.992;2023-03-05T04:34:30;38.67;;;14.25;;
22502;SDS011;11418;48.118;9.992;2023-03-05T04:38:31;34.25;;;12.50;;
22502;SDS011;11418;48.118;9.992;2023-03-05T04:42:32;40.22;;;13.63;;
22502;SDS011;11418;48.118;9.992;2023-03-05T04:46:32;29.98;;;11.48;;
22502;SDS011;11418;48.118;9.992;2023-03-05T04:50:33;35.38;;;10.85;;
22502;SDS011;11418;48.118;9.992;2023-03-05T04:54:34;31.48;;;11.90;;
22502;SDS011;11418;48.118;9.992;2023-03-05T04:58:34;28.52;;;10.65;;
22502;SDS011;11418;48.118;9.992;2023-03-05T05:02:35;26.50;;;10.77;;
22502;SDS011;11418;48.118;9.992;2023-03-05T05:06:35;29.17;;;9.60;;
22502;SDS011;11418;48.118;9.992;2023-03-05T05:10:36;26.23;;;10.15;;
22502;SDS011;11418;48.118;9.992;2023-03-05T05:14:40;25.85;;;9.63;;
22502;SDS011;11418;48.118;9.992;2023-03-05T05:18:41;27.17;;;9.65;;
22502;SDS011;11418;48.118;9.992;2023-03-05T05:22:41;26.40;;;10.40;;
22502;SDS011;11418;48.118;9.992;2023-03-05T05:26:42;25.85;;;10.23;;
22502;SDS011;11418;48.118;9.992;2023-03-05T05:30:43;32.28;;;10.85;;
22502;SDS011;11418;48.118;9.992;2023-03-05T05:34:43;34.28;;;11.43;;
22502;SDS011;11418;48.118;9.992;2023-03-05T05:38:44;22.75;;;8.88;;
22502;SDS011;11418;48.118;9.992;2023-03-05T05:42:45;27.30;;;10.27;;
22502;SDS011;11418;48.118;9.992;2023-03-05T05:46:45;25.45;;;9.57;;
22502;SDS011;11418;48.118;9.992;2023-03-05T05:50:46;23.10;;;8.88;;
22502;SDS011;11418;48.118;9.992;2023-03-05T05:54:46;25.70;;;9.20;;
22502;SDS011;11418;48.118;9.992;2023-03-05T05:58:47;24.25;;;9.50;;
22502;SDS011;11418;48.118;9.992;2023-03-05T06:02:48;34.25;;;10.18;;
22502;SDS011;11418;48.118;9.992;2023-03-05T06:06:49;26.30;;;9.88;;
22502;SDS011;11418;48.118;9.992;2023-03-05T06:10:55;25.55;;;9.50;;
22502;SDS011;11418;48.118;9.992;2023-03-05T06:14:56;23.05;;;9.15;;
22502;SDS011;11418;48.118;9.992;2023-03-05T06:18:57;23.25;;;9.32;;
22502;SDS011;11418;48.118;9.992;2023-03-05T06:22:57;24.10;;;9.05;;
22502;SDS011;11418;48.118;9.992;2023-03-05T06:26:58;22.27;;;9.30;;
22502;SDS011;11418;48.118;9.992;2023-03-05T06:30:59;28.40;;;8.95;;
22502;SDS011;11418;48.118;9.992;2023-03-05T06:35:01;25.02;;;8.57;;
22502;SDS011;11418;48.118;9.992;2023-03-05T06:39:02;25.60;;;8.90;;
22502;SDS011;11418;48.118;9.992;2023-03-05T06:43:03;25.27;;;9.15;;
22502;SDS011;11418;48.118;9.992;2023-03-05T06:47:05;34.80;;;12.05;;
22502;SDS011;11418;48.118;9.992;2023-03-05T06:51:13;25.05;;;10.77;;
22502;SDS011;11418;48.118;9.992;2023-03-05T06:55:16;27.25;;;9.75;;
22502;SDS011;11418;48.118;9.992;2023-03-05T06:59:17;27.25;;;9.80;;
22502;SDS011;11418;48.118;9.992;2023-03-05T07:03:17;29.85;;;10.75;;
22502;SDS011;11418;48.118;9.992;2023-03-05T07:07:18;24.70;;;9.45;;
22502;SDS011;11418;48.118;9.992;2023-03-05T07:11:19;28.83;;;9.82;;
22502;SDS011;11418;48.118;9.992;2023-03-05T07:15:20;23.98;;;8.93;;
22502;SDS011;11418;48.118;9.992;2023-03-05T07:19:21;33.65;;;10.85;;
22502;SDS011;11418;48.118;9.992;2023-03-05T07:23:21;23.55;;;9.45;;
22502;SDS011;11418;48.118;9.992;2023-03-05T07:27:22;21.63;;;9.05;;
22502;SDS011;11418;48.118;9.992;2023-03-05T07:31:24;19.23;;;8.27;;
22502;SDS011;11418;48.118;9.992;2023-03-05T07:35:30;21.70;;;9.07;;
22502;SDS011;11418;48.118;9.992;2023-03-05T07:39:31;21.52;;;8.93;;
22502;SDS011;11418;48.118;9.992;2023-03-05T07:43:31;17.45;;;8.07;;
22502;SDS011;11418;48.118;9.992;2023-03-05T07:47:32;23.70;;;8.73;;
22502;SDS011;11418;48.118;9.992;2023-03-05T07:51:33;25.45;;;9.07;;
22502;SDS011;11418;48.118;9.992;2023-03-05T07:55:33;26.55;;;9.27;;
22502;SDS011;11418;48.118;9.992;2023-03-05T07:59:34;27.38;;;9.00;;
22502;SDS011;11418;48.118;9.992;2023-03-05T08:03:34;20.00;;;8.18;;
22502;SDS011;11418;48.118;9.992;2023-03-05T08:07:35;24.52;;;8.77;;
22502;SDS011;11418;48.118;9.992;2023-03-05T08:11:35;22.25;;;8.20;;
22502;SDS011;11418;48.118;9.992;2023-03-05T08:15:37;22.20;;;7.72;;
22502;SDS011;11418;48.118;9.992;2023-03-05T08:19:37;22.58;;;8.93;;
22502;SDS011;11418;48.118;9.992;2023-03-05T08:23:38;17.38;;;6.53;;
22502;SDS011;11418;48.118;9.992;2023-03-05T08:27:39;26.55;;;9.00;;
22502;SDS011;11418;48.118;9.992;2023-03-05T08:31:43;22.10;;;8.68;;
22502;SDS011;11418;48.118;9.992;2023-03-05T08:35:45;20.17;;;8.48;;
22502;SDS011;11418;48.118;9.992;2023-03-05T08:39:46;30.83;;;8.98;;
22502;SDS011;11418;48.118;9.992;2023-03-05T08:43:46;24.20;;;9.30;;
22502;SDS011;11418;48.118;9.992;2023-03-05T08:47:47;23.25;;;8.95;;
22502;SDS011;11418;48.118;9.992;2023-03-05T08:51:48;27.10;;;8.90;;
22502;SDS011;11418;48.118;9.992;2023-03-05T08:55:55;27.70;;;10.68;;
22502;SDS011;11418;48.118;9.992;2023-03-05T08:59:56;23.40;;;9.38;;
22502;SDS011;11418;48.118;9.992;2023-03-05T09:03:58;22.77;;;9.13;;
22502;SDS011;11418;48.118;9.992;2023-03-05T09:07:59;27.60;;;9.95;;
22502;SDS011;11418;48.118;9.992;2023-03-05T09:12:00;41.17;;;14.00;;
22502;SDS011;11418;48.118;9.992;2023-03-05T09:16:02;26.02;;;9.70;;
22502;SDS011;11418;48.118;9.992;2023-03-05T09:20:05;24.65;;;8.75;;
22502;SDS011;11418;48.118;9.992;2023-03-05T09:24:06;15.13;;;7.65;;
22502;SDS011;11418;48.118;9.992;2023-03-05T09:28:07;16.60;;;7.55;;
22502;SDS011;11418;48.118;9.992;2023-03-05T09:32:07;20.05;;;8.20;;
22502;SDS011;11418;48.118;9.992;2023-03-05T09:36:22;21.38;;;8.50;;
22502;SDS011;11418;48.118;9.992;2023-03-05T09:40:24;19.73;;;8.13;;
22502;SDS011;11418;48.118;9.992;2023-03-05T09:49:06;21.25;;;7.93;;
22502;SDS011;11418;48.118;9.992;2023-03-05T09:53:34;17.83;;;7.03;;
22502;SDS011;11418;48.118;9.992;2023-03-05T09:57:42;15.10;;;5.45;;
22502;SDS011;11418;48.118;9.992;2023-03-05T10:01:47;16.58;;;5.50;;
22502;SDS011;11418;48.118;9.992;2023-03-05T10:10:25;15.50;;;6.03;;
22502;SDS011;11418;48.118;9.992;2023-03-05T10:14:39;15.68;;;6.25;;
22502;SDS011;11418;48.118;9.992;2023-03-05T10:18:40;15.93;;;6.80;;
22502;SDS011;11418;48.118;9.992;2023-03-05T10:23:03;13.05;;;5.25;;
22502;SDS011;11418;48.118;9.992;2023-03-05T10:27:19;13.80;;;4.80;;
22502;SDS011;11418;48.118;9.992;2023-03-05T10:44:50;17.08;;;6.57;;
22502;SDS011;11418;48.118;9.992;2023-03-05T10:53:26;15.32;;;6.70;;
22502;SDS011;11418;48.118;9.992;2023-03-05T10:57:30;18.45;;;7.35;;
22502;SDS011;11418;48.118;9.992;2023-03-05T11:01:31;17.98;;;7.00;;
22502;SDS011;11418;48.118;9.992;2023-03-05T11:05:49;17.05;;;7.22;;
22502;SDS011;11418;48.118;9.992;2023-03-05T11:14:03;14.85;;;6.80;;
22502;SDS011;11418;48.118;9.992;2023-03-05T11:18:25;16.45;;;7.50;;
22502;SDS011;11418;48.118;9.992;2023-03-05T11:22:25;16.05;;;7.38;;
22502;SDS011;11418;48.118;9.992;2023-03-05T11:26:26;18.17;;;6.57;;
22502;SDS011;11418;48.118;9.992;2023-03-05T11:30:28;20.52;;;7.10;;
22502;SDS011;11418;48.118;9.992;2023-03-05T11:34:33;16.17;;;7.45;;
22502;SDS011;11418;48.118;9.992;2023-03-05T11:38:43;17.77;;;7.40;;
22502;SDS011;11418;48.118;9.992;2023-03-05T11:42:47;15.75;;;6.70;;
22502;SDS011;11418;48.118;9.992;2023-03-05T11:47:00;18.05;;;7.80;;
22502;SDS011;11418;48.118;9.992;2023-03-05T11:51:31;15.43;;;7.30;;
22502;SDS011;11418;48.118;9.992;2023-03-05T11:55:41;16.92;;;7.78;;
22502;SDS011;11418;48.118;9.992;2023-03-05T12:00:20;22.23;;;7.55;;
22502;SDS011;11418;48.118;9.992;2023-03-05T12:04:28;19.77;;;8.45;;
22502;SDS011;11418;48.118;9.992;2023-03-05T12:08:32;17.38;;;7.68;;
22502;SDS011;11418;48.118;9.992;2023-03-05T12:12:44;16.70;;;7.80;;
22502;SDS011;11418;48.118;9.992;2023-03-05T12:25:32;15.73;;;6.93;;
22502;SDS011;11418;48.118;9.992;2023-03-05T12:29:44;21.58;;;8.48;;
22502;SDS011;11418;48.118;9.992;2023-03-05T12:33:47;13.30;;;6.22;;
22502;SDS011;11418;48.118;9.992;2023-03-05T12:41:49;17.67;;;7.80;;
22502;SDS011;11418;48.118;9.992;2023-03-05T12:45:49;14.63;;;7.03;;
22502;SDS011;11418;48.118;9.992;2023-03-05T12:49:51;16.65;;;7.20;;
22502;SDS011;11418;48.118;9.992;2023-03-05T12:53:52;21.17;;;9.57;;
22502;SDS011;11418;48.118;9.992;2023-03-05T12:57:57;15.20;;;6.18;;
22502;SDS011;11418;48.118;9.992;2023-03-05T13:02:19;17.88;;;7.95;;
22502;SDS011;11418;48.118;9.992;2023-03-05T13:06:27;15.57;;;6.32;;
22502;SDS011;11418;48.118;9.992;2023-03-05T13:10:29;12.40;;;6.10;;
22502;SDS011;11418;48.118;9.992;2023-03-05T13:14:39;13.45;;;6.18;;
22502;SDS011;11418;48.118;9.992;2023-03-05T13:18:44;13.68;;;5.95;;
22502;SDS011;11418;48.118;9.992;2023-03-05T13:22:47;18.10;;;6.65;;
22502;SDS011;11418;48.118;9.992;2023-03-05T13:26:47;15.93;;;6.28;;
22502;SDS011;11418;48.118;9.992;2023-03-05T13:34:53;17.13;;;6.07;;
22502;SDS011;11418;48.118;9.992;2023-03-05T13:38:56;16.55;;;6.40;;
22502;SDS011;11418;48.118;9.992;2023-03-05T13:43:10;17.13;;;6.18;;
22502;SDS011;11418;48.118;9.992;2023-03-05T13:47:15;15.68;;;6.50;;
22502;SDS011;11418;48.118;9.992;2023-03-05T13:51:17;13.02;;;5.93;;
22502;SDS011;11418;48.118;9.992;2023-03-05T13:55:18;16.30;;;5.95;;
22502;SDS011;11418;48.118;9.992;2023-03-05T13:59:19;11.32;;;5.60;;
22502;SDS011;11418;48.118;9.992;2023-03-05T14:03:22;12.55;;;6.05;;
22502;SDS011;11418;48.118;9.992;2023-03-05T14:07:28;12.73;;;6.22;;
22502;SDS011;11418;48.118;9.992;2023-03-05T14:11:32;14.52;;;6.45;;
22502;SDS011;11418;48.118;9.992;2023-03-05T14:15:33;13.50;;;6.15;;
22502;SDS011;11418;48.118;9.992;2023-03-05T14:19:35;13.63;;;6.93;;
22502;SDS011;11418;48.118;9.992;2023-03-05T14:23:39;12.05;;;5.57;;
22502;SDS011;11418;48.118;9.992;2023-03-05T14:27:42;11.85;;;5.45;;
22502;SDS011;11418;48.118;9.992;2023-03-05T14:31:50;14.45;;;5.80;;
22502;SDS011;11418;48.118;9.992;2023-03-05T14:35:53;12.30;;;4.88;;
22502;SDS011;11418;48.118;9.992;2023-03-05T14:39:55;14.18;;;6.57;;
22502;SDS011;11418;48.118;9.992;2023-03-05T14:43:58;13.98;;;6.45;;
22502;SDS011;11418;48.118;9.992;2023-03-05T14:48:00;12.10;;;5.55;;
22502;SDS011;11418;48.118;9.992;2023-03-05T14:52:02;14.30;;;6.30;;
22502;SDS011;11418;48.118;9.992;2023-03-05T14:56:05;16.00;;;6.78;;
22502;SDS011;11418;48.118;9.992;2023-03-05T15:00:21;15.35;;;6.45;;
22502;SDS011;11418;48.118;9.992;2023-03-05T15:04:23;10.75;;;4.95;;
22502;SDS011;11418;48.118;9.992;2023-03-05T15:08:25;9.88;;;4.30;;
22502;SDS011;11418;48.118;9.992;2023-03-05T15:12:27;9.52;;;4.43;;
22502;SDS011;11418;48.118;9.992;2023-03-05T15:16:27;7.88;;;4.30;;
22502;SDS011;11418;48.118;9.992;2023-03-05T15:20:29;9.55;;;3.92;;
22502;SDS011;11418;48.118;9.992;2023-03-05T15:24:30;7.72;;;3.70;;
22502;SDS011;11418;48.118;9.992;2023-03-05T15:28:31;6.80;;;3.60;;
22502;SDS011;11418;48.118;9.992;2023-03-05T15:32:36;8.55;;;4.10;;
22502;SDS011;11418;48.118;9.992;2023-03-05T15:36:36;8.93;;;4.53;;
22502;SDS011;11418;48.118;9.992;2023-03-05T15:40:37;10.38;;;4.18;;
22502;SDS011;11418;48.118;9.992;2023-03-05T15:44:37;10.63;;;4.07;;
22502;SDS011;11418;48.118;9.992;2023-03-05T15:48:39;10.13;;;3.75;;
22502;SDS011;11418;48.118;9.992;2023-03-05T15:52:40;9.30;;;3.85;;
22502;SDS011;11418;48.118;9.992;2023-03-05T15:56:41;8.82;;;4.50;;
22502;SDS011;11418;48.118;9.992;2023-03-05T16:00:42;6.93;;;3.67;;
22502;SDS011;11418;48.118;9.992;2023-03-05T16:04:43;9.25;;;4.57;;
22502;SDS011;11418;48.118;9.992;2023-03-05T16:08:43;10.88;;;4.40;;
22502;SDS011;11418;48.118;9.992;2023-03-05T16:12:44;7.38;;;3.38;;
22502;SDS011;11418;48.118;9.992;2023-03-05T16:16:47;7.90;;;3.88;;
22502;SDS011;11418;48.118;9.992;2023-03-05T16:20:48;9.75;;;3.72;;
22502;SDS011;11418;48.118;9.992;2023-03-05T16:24:49;12.70;;;4.65;;
22502;SDS011;11418;48.118;9.992;2023-03-05T16:28:50;7.95;;;4.45;;
22502;SDS011;11418;48.118;9.992;2023-03-05T16:32:50;9.40;;;4.30;;
22502;SDS011;11418;48.118;9.992;2023-03-05T16:36:51;7.57;;;3.42;;
22502;SDS011;11418;48.118;9.992;2023-03-05T16:40:52;10.68;;;4.30;;
22502;SDS011;11418;48.118;9.992;2023-03-05T16:44:52;9.20;;;4.25;;
22502;SDS011;11418;48.118;9.992;2023-03-05T16:48:53;8.73;;;4.28;;
22502;SDS011;11418;48.118;9.992;2023-03-05T16:52:54;10.52;;;4.95;;
22502;SDS011;11418;48.118;9.992;2023-03-05T16:56:54;15.20;;;6.45;;
22502;SDS011;11418;48.118;9.992;2023-03-05T17:00:56;12.98;;;5.18;;
22502;SDS011;11418;48.118;9.992;2023-03-05T17:04:57;11.50;;;5.22;;
22502;SDS011;11418;48.118;9.992;2023-03-05T17:08:58;10.60;;;4.60;;
22502;SDS011;11418;48.118;9.992;2023-03-05T17:13:00;8.13;;;3.78;;
22502;SDS011;11418;48.118;9.992;2023-03-05T17:17:00;9.68;;;4.10;;
22502;SDS011;11418;48.118;9.992;2023-03-05T17:21:02;8.40;;;4.05;;
22502;SDS011;11418;48.118;9.992;2023-03-05T17:25:04;10.10;;;3.78;;
22502;SDS011;11418;48.118;9.992;2023-03-05T17:29:05;10.00;;;4.15;;
22502;SDS011;11418;48.118;9.992;2023-03-05T17:33:06;15.93;;;5.80;;
22502;SDS011;11418;48.118;9.992;2023-03-05T17:37:09;13.43;;;4.78;;
22502;SDS011;11418;48.118;9.992;2023-03-05T17:41:10;9.20;;;5.15;;
22502;SDS011;11418;48.118;9.992;2023-03-05T17:45:11;15.48;;;5.43;;
22502;SDS011;11418;48.118;9.992;2023-03-05T17:49:12;8.25;;;3.63;;
22502;SDS011;11418;48.118;9.992;2023-03-05T17:53:13;10.98;;;4.57;;
22502;SDS011;11418;48.118;9.992;2023-03-05T17:57:13;10.57;;;4.35;;
22502;SDS011;11418;48.118;9.992;2023-03-05T18:01:24;11.55;;;4.65;;
22502;SDS011;11418;48.118;9.992;2023-03-05T18:05:27;8.68;;;4.47;;
22502;SDS011;11418;48.118;9.992;2023-03-05T18:09:27;8.77;;;4.30;;
22502;SDS011;11418;48.118;9.992;2023-03-05T18:13:28;13.57;;;5.57;;
22502;SDS011;11418;48.118;9.992;2023-03-05T18:17:29;15.10;;;7.00;;
22502;SDS011;11418;48.118;9.992;2023-03-05T18:21:29;8.85;;;4.70;;
22502;SDS011;11418;48.118;9.992;2023-03-05T18:25:30;20.58;;;7.90;;
22502;SDS011;11418;48.118;9.992;2023-03-05T18:29:30;22.98;;;9.52;;
22502;SDS011;11418;48.118;9.992;2023-03-05T18:33:31;25.67;;;10.07;;
22502;SDS011;11418;48.118;9.992;2023-03-05T18:37:32;21.05;;;8.23;;
22502;SDS011;11418;48.118;9.992;2023-03-05T18:41:32;9.38;;;4.50;;
22502;SDS011;11418;48.118;9.992;2023-03-05T18:45:33;9.02;;;3.63;;
22502;SDS011;11418;48.118;9.992;2023-03-05T18:49:33;8.65;;;3.67;;
22502;SDS011;11418;48.118;9.992;2023-03-05T18:53:34;6.20;;;3.40;;
22502;SDS011;11418;48.118;9.992;2023-03-05T18:57:35;8.88;;;3.78;;
22502;SDS011;11418;48.118;9.992;2023-03-05T19:01:35;10.02;;;3.88;;
22502;SDS011;11418;48.118;9.992;2023-03-05T19:05:36;9.57;;;4.57;;
22502;SDS011;11418;48.118;9.992;2023-03-05T19:09:46;9.82;;;4.65;;
22502;SDS011;11418;48.118;9.992;2023-03-05T19:13:55;13.05;;;4.90;;
22502;SDS011;11418;48.118;9.992;2023-03-05T19:17:55;15.50;;;5.22;;
22502;SDS011;11418;48.118;9.992;2023-03-05T19:21:56;10.35;;;4.32;;
22502;SDS011;11418;48.118;9.992;2023-03-05T19:25:59;4.63;;;2.72;;
22502;SDS011;11418;48.118;9.992;2023-03-05T19:30:00;6.30;;;2.95;;
22502;SDS011;11418;48.118;9.992;2023-03-05T19:34:01;7.75;;;3.53;;
22502;SDS011;11418;48.118;9.992;2023-03-05T19:38:02;9.75;;;3.72;;
22502;SDS011;11418;48.118;9.992;2023-03-05T19:42:02;7.38;;;3.53;;
22502;SDS011;11418;48.118;9.992;2023-03-05T19:46:04;8.68;;;3.35;;
22502;SDS011;11418;48.118;9.992;2023-03-05T19:50:06;7.75;;;3.90;;
22502;SDS011;11418;48.118;9.992;2023-03-05T19:54:07;7.80;;;3.90;;
22502;SDS011;11418;48.118;9.992;2023-03-05T19:58:08;11.20;;;5.07;;
22502;SDS011;11418;48.118;9.992;2023-03-05T20:02:10;13.32;;;5.65;;
22502;SDS011;11418;48.118;9.992;2023-03-05T20:06:11;12.90;;;5.35;;
22502;SDS011;11418;48.118;9.992;2023-03-05T20:10:12;12.90;;;5.88;;
22502;SDS011;11418;48.118;9.992;2023-03-05T20:14:13;11.65;;;4.78;;
22502;SDS011;11418;48.118;9.992;2023-03-05T20:18:13;12.55;;;5.00;;
22502;SDS011;11418;48.118;9.992;2023-03-05T20:22:14;11.85;;;5.38;;
22502;SDS011;11418;48.118;9.992;2023-03-05T20:26:14;13.35;;;5.43;;
22502;SDS011;11418;48.118;9.992;2023-03-05T20:30:15;13.35;;;5.75;;
22502;SDS011;11418;48.118;9.992;2023-03-05T20:34:17;15.13;;;4.97;;
22502;SDS011;11418;48.118;9.992;2023-03-05T20:38:22;12.73;;;5.75;;
22502;SDS011;11418;48.118;9.992;2023-03-05T20:42:24;16.63;;;6.32;;
22502;SDS011;11418;48.118;9.992;2023-03-05T20:46:28;15.02;;;5.93;;
22502;SDS011;11418;48.118;9.992;2023-03-05T20:50:30;13.75;;;6.22;;
22502;SDS011;11418;48.118;9.992;2023-03-05T20:54:32;13.73;;;5.63;;
22502;SDS011;11418;48.118;9.992;2023-03-05T20:58:33;12.68;;;6.22;;
22502;SDS011;11418;48.118;9.992;2023-03-05T21:02:33;18.83;;;6.40;;
22502;SDS011;11418;48.118;9.992;2023-03-05T21:06:34;14.32;;;6.20;;
22502;SDS011;11418;48.118;9.992;2023-03-05T21:10:36;12.13;;;5.03;;
22502;SDS011;11418;48.118;9.992;2023-03-05T21:14:37;14.13;;;5.90;;
22502;SDS011;11418;48.118;9.992;2023-03-05T21:18:39;17.17;;;5.20;;
22502;SDS011;11418;48.118;9.992;2023-03-05T21:22:40;14.40;;;6.38;;
22502;SDS011;11418;48.118;9.992;2023-03-05T21:26:40;18.10;;;7.97;;
22502;SDS011;11418;48.118;9.992;2023-03-05T21:30:51;17.65;;;7.85;;
22502;SDS011;11418;48.118;9.992;2023-03-05T21:34:52;23.05;;;7.57;;
22502;SDS011;11418;48.118;9.992;2023-03-05T21:38:53;20.13;;;9.38;;
22502;SDS011;11418;48.118;9.992;2023-03-05T21:42:53;18.40;;;7.38;;
22502;SDS011;11418;48.118;9.992;2023-03-05T21:46:54;16.95;;;7.18;;
22502;SDS011;11418;48.118;9.992;2023-03-05T21:50:55;16.50;;;7.05;;
22502;SDS011;11418;48.118;9.992;2023-03-05T21:54:56;20.88;;;8.15;;
22502;SDS011;11418;48.118;9.992;2023-03-05T21:58:56;18.30;;;7.32;;
22502;SDS011;11418;48.118;9.992;2023-03-05T22:02:57;14.27;;;6.50;;
22502;SDS011;11418;48.118;9.992;2023-03-05T22:06:57;15.65;;;6.68;;
22502;SDS011;11418;48.118;9.992;2023-03-05T22:10:58;15.00;;;6.95;;
22502;SDS011;11418;48.118;9.992;2023-03-05T22:14:58;16.83;;;7.10;;
22502;SDS011;11418;48.118;9.992;2023-03-05T22:18:59;15.60;;;6.35;;
22502;SDS011;11418;48.118;9.992;2023-03-05T22:23:00;16.92;;;7.10;;
22502;SDS011;11418;48.118;9.992;2023-03-05T22:27:01;15.20;;;5.85;;
22502;SDS011;11418;48.118;9.992;2023-03-05T22:31:01;14.80;;;6.25;;
22502;SDS011;11418;48.118;9.992;2023-03-05T22:35:02;13.48;;;5.93;;
22502;SDS011;11418;48.118;9.992;2023-03-05T22:39:04;14.35;;;5.20;;
22502;SDS011;11418;48.118;9.992;2023-03-05T22:43:04;14.00;;;6.53;;
22502;SDS011;11418;48.118;9.992;2023-03-05T22:47:05;11.82;;;5.30;;
22502;SDS011;11418;48.118;9.992;2023-03-05T22:51:06;11.88;;;5.40;;
22502;SDS011;11418;48.118;9.992;2023-03-05T22:55:09;11.25;;;4.90;;
22502;SDS011;11418;48.118;9.992;2023-03-05T22:59:11;10.93;;;5.55;;
22502;SDS011;11418;48.118;9.992;2023-03-05T23:03:13;13.32;;;5.32;;
22502;SDS011;11418;48.118;9.992;2023-03-05T23:07:15;14.73;;;6.18;;
22502;SDS011;11418;48.118;9.992;2023-03-05T23:11:16;18.10;;;5.95;;
22502;SDS011;11418;48.118;9.992;2023-03-05T23:15:18;10.60;;;5.22;;
22502;SDS011;11418;48.118;9.992;2023-03-05T23:19:24;15.18;;;5.97;;
22502;SDS011;11418;48.118;9.992;2023-03-05T23:23:25;13.45;;;4.82;;
22502;SDS011;11418;48.118;9.992;2023-03-05T23:27:25;10.07;;;5.85;;
22502;SDS011;11418;48.118;9.992;2023-03-05T23:31:26;12.52;;;5.47;;
22502;SDS011;11418;48.118;9.992;2023-03-05T23:39:28;14.13;;;5.60;;
22502;SDS011;11418;48.118;9.992;2023-03-05T23:43:29;13.00;;;5.63;;
22502;SDS011;11418;48.118;9.992;2023-03-05T23:47:29;12.38;;;5.78;;
22502;SDS011;11418;48.118;9.992;2023-03-05T23:51:32;14.73;;;6.00;;
22502;SDS011;11418;48.118;9.992;2023-03-05T23:55:34;10.23;;;4.93;;
22502;SDS011;11418;48.118;9.992;2023-03-05T23:59:38;10.52;;;4.82;;
